Dr.kaiyo — JD2325 — position and weather

sailwx.info

Track history (hours):
 
Tides and Currents Weather Stations Pressure Air Temp Water Temp Dewpoint Dewpoint Depression Visibility Wind Speed Wind Dir Waves Ship Positions

Dr.kaiyo

Last reported at 2017-Sep-22 00:21 UTC. Time now 2017-Sep-24 15:46 UTC.
Position N 34°37' E 134°57'.

Length 31 m.

Type: Other ship. MMSI: 431301823.

Date/timePositionNaut miles runAvg speedWind from/ knotsBaromVisibWave heightAir tempDewpointWater temp
2017-Sep-22 00:21N 34°37' E 134°57'616.6
2017-Sep-22 00:00N 34°36' E 135°04'714.0
2017-Sep-21 23:30N 34°39' E 135°11'2 4.8
2017-Sep-21 23:00N 34°41' E 135°12'0 0.0
2017-Sep-21 22:30N 34°41' E 135°12'0 0.0
2017-Sep-21 06:48N 34°41' E 135°12'0 0.0
2017-Sep-21 06:30N 34°41' E 135°12'0 0.0
2017-Sep-21 06:00N 34°41' E 135°12'2 4.5
2017-Sep-21 05:30N 34°40' E 135°15'4 9.0
2017-Sep-21 05:00N 34°36' E 135°15'3 6.0
2017-Sep-21 04:30N 34°33' E 135°14'0 1.0
2017-Sep-21 04:01N 34°33' E 135°13'4 8.0
2017-Sep-21 03:30N 34°34' E 135°09'2 3.3
2017-Sep-21 03:01N 34°35' E 135°07'2 3.0
2017-Sep-21 02:30N 34°36' E 135°06'1 1.8
2017-Sep-21 02:00N 34°35' E 135°07'3 5.7
2017-Sep-21 01:30N 34°38' E 135°09'4 7.9
2017-Sep-21 01:00N 34°41' E 135°12'1 1.1
2017-Sep-21 00:30N 34°41' E 135°13'0 0.0
2017-Sep-21 00:00N 34°41' E 135°13'0 0.0
2017-Sep-20 23:30N 34°41' E 135°13'1 1.4
2017-Sep-20 23:00N 34°41' E 135°12'0 0.0
2017-Sep-20 22:30N 34°41' E 135°12'0 0.0
2017-Sep-20 05:49N 34°41' E 135°12'0 0.0
2017-Sep-20 05:30N 34°41' E 135°12'1 1.1
2017-Sep-20 05:00N 34°42' E 135°13'611.8
2017-Sep-20 04:30N 34°37' E 135°09'7 1.5
2017-Sep-20 00:08N 34°37' E 135°01'216.1
2017-Sep-20 00:00N 34°36' E 135°04'612.9
2017-Sep-19 23:31N 34°39' E 135°11'3 5.9
2017-Sep-19 23:00N 34°41' E 135°12'0 0.0
2017-Sep-19 06:02N 34°41' E 135°12'0 0.0
2017-Sep-19 06:00N 34°41' E 135°12'0 0.0
2017-Sep-19 05:30N 34°41' E 135°12'0 0.1
2017-Sep-19 05:00N 34°42' E 135°12'4 7.6
2017-Sep-19 04:31N 34°38' E 135°11'2 4.0
2017-Sep-19 04:00N 34°36' E 135°10'2 4.5
2017-Sep-19 03:30N 34°38' E 135°10'0 0.0
2017-Sep-19 03:00N 34°38' E 135°10'0 0.1
2017-Sep-19 02:30N 34°38' E 135°10'4 7.8
2017-Sep-19 02:00N 34°36' E 135°07'1 1.1
2017-Sep-19 01:31N 34°36' E 135°07'0 0.9
2017-Sep-19 01:00N 34°36' E 135°07'1 1.4
2017-Sep-19 00:31N 34°36' E 135°08'611.2
2017-Sep-19 00:00N 34°41' E 135°12'1 1.6
2017-Sep-18 23:30N 34°41' E 135°12'  
2017-Sep-15 04:43N 34°41' E 135°12'0 0.0
2017-Sep-15 04:30N 34°41' E 135°12'3 5.9
2017-Sep-15 04:00N 34°39' E 135°11'713.9
2017-Sep-15 03:30N 34°36' E 135°03'7 2.3
2017-Sep-15 00:38N 34°37' E 134°56'611.8
2017-Sep-15 00:08N 34°37' E 135°03'110.9
2017-Sep-15 00:00N 34°36' E 135°04'612.2
2017-Sep-14 23:30N 34°39' E 135°11'3 5.9
2017-Sep-14 23:00N 34°41' E 135°12'0 0.0
2017-Sep-14 05:58N 34°41' E 135°12'2 4.4
2017-Sep-14 05:30N 34°40' E 135°12'713.5
2017-Sep-14 05:00N 34°34' E 135°07'3 6.7
2017-Sep-14 04:30N 34°35' E 135°11'3 5.3
2017-Sep-14 04:00N 34°37' E 135°09'1 2.2
2017-Sep-14 03:30N 34°37' E 135°10'0 0.6
2017-Sep-14 03:01N 34°37' E 135°10'4 8.8
2017-Sep-14 02:30N 34°41' E 135°13'0 0.0
2017-Sep-14 02:00N 34°41' E 135°13'0 0.0
2017-Sep-14 01:30N 34°41' E 135°13'4 7.8
2017-Sep-14 01:00N 34°38' E 135°10'1 1.8
2017-Sep-14 00:30N 34°37' E 135°09'3 5.3
2017-Sep-14 00:00N 34°39' E 135°11'3 5.3
2017-Sep-13 23:30N 34°41' E 135°12'0 0.0
2017-Sep-13 23:00N 34°41' E 135°12'0 0.0
2017-Sep-13 05:07N 34°41' E 135°12'0 0.0
2017-Sep-13 05:00N 34°41' E 135°12'3 6.7
2017-Sep-13 04:31N 34°39' E 135°16'3 6.1
2017-Sep-13 04:00N 34°40' E 135°12'0 0.0
2017-Sep-13 03:30N 34°40' E 135°12'0 0.2
2017-Sep-13 03:00N 34°40' E 135°12'4 7.2
2017-Sep-13 02:30N 34°42' E 135°15'0 0.1
2017-Sep-13 02:00N 34°42' E 135°15'0 0.3
2017-Sep-13 01:30N 34°42' E 135°15'510.3
2017-Sep-13 01:00N 34°37' E 135°14'1 2.4
2017-Sep-13 00:31N 34°36' E 135°14'3 6.9
2017-Sep-13 00:01N 34°39' E 135°16'4 7.8
2017-Sep-12 23:31N 34°41' E 135°12'0 0.0
2017-Sep-12 04:59N 34°41' E 135°12'1 1.9
2017-Sep-12 04:31N 34°41' E 135°13'510.1
2017-Sep-12 04:00N 34°36' E 135°15'713.7
2017-Sep-12 03:29N 34°33' E 135°07'612.2
2017-Sep-12 02:58N 34°37' E 135°01'  
Track history (hours):
 
Tides and Currents Weather Stations Pressure Air Temp Water Temp Dewpoint Dewpoint Depression Visibility Wind Speed Wind Dir Waves Ship Positions

Dr.kaiyo

Last reported at 2017-Sep-22 00:21 UTC. Time now 2017-Sep-24 15:46 UTC.
Position N 34°37' E 134°57'.

Length 31 m.

Type: Other ship. MMSI: 431301823.

Date/timePositionNaut miles runAvg speedWind from/ knotsBaromVisibWave heightAir tempDewpointWater temp
2017-Sep-22 00:21N 34°37' E 134°57'616.6
2017-Sep-22 00:00N 34°36' E 135°04'714.0
2017-Sep-21 23:30N 34°39' E 135°11'2 4.8
2017-Sep-21 23:00N 34°41' E 135°12'0 0.0
2017-Sep-21 22:30N 34°41' E 135°12'0 0.0
2017-Sep-21 06:48N 34°41' E 135°12'0 0.0
2017-Sep-21 06:30N 34°41' E 135°12'0 0.0
2017-Sep-21 06:00N 34°41' E 135°12'2 4.5
2017-Sep-21 05:30N 34°40' E 135°15'4 9.0
2017-Sep-21 05:00N 34°36' E 135°15'3 6.0
2017-Sep-21 04:30N 34°33' E 135°14'0 1.0
2017-Sep-21 04:01N 34°33' E 135°13'4 8.0
2017-Sep-21 03:30N 34°34' E 135°09'2 3.3
2017-Sep-21 03:01N 34°35' E 135°07'2 3.0
2017-Sep-21 02:30N 34°36' E 135°06'1 1.8
2017-Sep-21 02:00N 34°35' E 135°07'3 5.7
2017-Sep-21 01:30N 34°38' E 135°09'4 7.9
2017-Sep-21 01:00N 34°41' E 135°12'1 1.1
2017-Sep-21 00:30N 34°41' E 135°13'0 0.0
2017-Sep-21 00:00N 34°41' E 135°13'0 0.0
2017-Sep-20 23:30N 34°41' E 135°13'1 1.4
2017-Sep-20 23:00N 34°41' E 135°12'0 0.0
2017-Sep-20 22:30N 34°41' E 135°12'0 0.0
2017-Sep-20 05:49N 34°41' E 135°12'0 0.0
2017-Sep-20 05:30N 34°41' E 135°12'1 1.1
2017-Sep-20 05:00N 34°42' E 135°13'611.8
2017-Sep-20 04:30N 34°37' E 135°09'7 1.5
2017-Sep-20 00:08N 34°37' E 135°01'216.1
2017-Sep-20 00:00N 34°36' E 135°04'612.9
2017-Sep-19 23:31N 34°39' E 135°11'3 5.9
2017-Sep-19 23:00N 34°41' E 135°12'0 0.0
2017-Sep-19 06:02N 34°41' E 135°12'0 0.0
2017-Sep-19 06:00N 34°41' E 135°12'0 0.0
2017-Sep-19 05:30N 34°41' E 135°12'0 0.1
2017-Sep-19 05:00N 34°42' E 135°12'4 7.6
2017-Sep-19 04:31N 34°38' E 135°11'2 4.0
2017-Sep-19 04:00N 34°36' E 135°10'2 4.5
2017-Sep-19 03:30N 34°38' E 135°10'0 0.0
2017-Sep-19 03:00N 34°38' E 135°10'0 0.1
2017-Sep-19 02:30N 34°38' E 135°10'4 7.8
2017-Sep-19 02:00N 34°36' E 135°07'1 1.1
2017-Sep-19 01:31N 34°36' E 135°07'0 0.9
2017-Sep-19 01:00N 34°36' E 135°07'1 1.4
2017-Sep-19 00:31N 34°36' E 135°08'611.2
2017-Sep-19 00:00N 34°41' E 135°12'1 1.6
2017-Sep-18 23:30N 34°41' E 135°12'  
2017-Sep-15 04:43N 34°41' E 135°12'0 0.0
2017-Sep-15 04:30N 34°41' E 135°12'3 5.9
2017-Sep-15 04:00N 34°39' E 135°11'713.9
2017-Sep-15 03:30N 34°36' E 135°03'7 2.3
2017-Sep-15 00:38N 34°37' E 134°56'611.8
2017-Sep-15 00:08N 34°37' E 135°03'110.9
2017-Sep-15 00:00N 34°36' E 135°04'612.2
2017-Sep-14 23:30N 34°39' E 135°11'3 5.9
2017-Sep-14 23:00N 34°41' E 135°12'0 0.0
2017-Sep-14 05:58N 34°41' E 135°12'2 4.4
2017-Sep-14 05:30N 34°40' E 135°12'713.5
2017-Sep-14 05:00N 34°34' E 135°07'3 6.7
2017-Sep-14 04:30N 34°35' E 135°11'3 5.3
2017-Sep-14 04:00N 34°37' E 135°09'1 2.2
2017-Sep-14 03:30N 34°37' E 135°10'0 0.6
2017-Sep-14 03:01N 34°37' E 135°10'4 8.8
2017-Sep-14 02:30N 34°41' E 135°13'0 0.0
2017-Sep-14 02:00N 34°41' E 135°13'0 0.0
2017-Sep-14 01:30N 34°41' E 135°13'4 7.8
2017-Sep-14 01:00N 34°38' E 135°10'1 1.8
2017-Sep-14 00:30N 34°37' E 135°09'3 5.3
2017-Sep-14 00:00N 34°39' E 135°11'3 5.3
2017-Sep-13 23:30N 34°41' E 135°12'0 0.0
2017-Sep-13 23:00N 34°41' E 135°12'0 0.0
2017-Sep-13 05:07N 34°41' E 135°12'0 0.0
2017-Sep-13 05:00N 34°41' E 135°12'3 6.7
2017-Sep-13 04:31N 34°39' E 135°16'3 6.1
2017-Sep-13 04:00N 34°40' E 135°12'0 0.0
2017-Sep-13 03:30N 34°40' E 135°12'0 0.2
2017-Sep-13 03:00N 34°40' E 135°12'4 7.2
2017-Sep-13 02:30N 34°42' E 135°15'0 0.1
2017-Sep-13 02:00N 34°42' E 135°15'0 0.3
2017-Sep-13 01:30N 34°42' E 135°15'510.3
2017-Sep-13 01:00N 34°37' E 135°14'1 2.4
2017-Sep-13 00:31N 34°36' E 135°14'3 6.9
2017-Sep-13 00:01N 34°39' E 135°16'4 7.8
2017-Sep-12 23:31N 34°41' E 135°12'0 0.0
2017-Sep-12 04:59N 34°41' E 135°12'1 1.9
2017-Sep-12 04:31N 34°41' E 135°13'510.1
2017-Sep-12 04:00N 34°36' E 135°15'713.7
2017-Sep-12 03:29N 34°33' E 135°07'612.2
2017-Sep-12 02:58N 34°37' E 135°01'  

Dump ship's entire track history